Time;durP1;ratioP1;P1;durP2;ratioP2;P2;SDS_P1;SDS_P2;PMS_P1;PMS_P2;Temp;Humidity;BMP_temperature;BMP_pressure;BME280_temperature;BME280_humidity;BME280_pressure;Samples;Min_cycle;Max_cycle;Signal;HPM_P1;HPM_P2
2022/12/14 00:00:31;;;;;;;25.48;8.77;;;;;;;-1.82;70.92;100320.03;5052781;28;20076;-71
2022/12/14 00:02:56;;;;;;;24.05;9.48;;;;;;;-1.81;71.22;100310.38;5034793;28;20493;-71
2022/12/14 00:05:21;;;;;;;21.98;8.93;;;;;;;-1.82;70.56;100306.84;5051396;28;20025;-71
2022/12/14 00:07:46;;;;;;;23.02;8.25;;;;;;;-1.86;70.66;100304.38;5051123;28;20033;-70
2022/12/14 00:10:12;;;;;;;23.42;8.00;;;;;;;-1.91;70.56;100288.72;5054599;28;20037;-71
2022/12/14 00:12:37;;;;;;;23.75;8.80;;;;;;;-1.91;71.28;100293.97;5051287;28;20033;-71
2022/12/14 00:15:03;;;;;;;24.75;8.60;;;;;;;-1.94;70.95;100288.81;5041511;28;20710;-71
2022/12/14 00:17:28;;;;;;;23.38;8.77;;;;;;;-1.93;71.40;100285.28;5035237;28;20039;-71
2022/12/14 00:19:54;;;;;;;24.27;9.80;;;;;;;-1.93;70.62;100280.00;5052955;28;20108;-71
2022/12/14 00:22:19;;;;;;;26.77;9.15;;;;;;;-1.96;70.98;100286.22;5050308;28;20455;-71
2022/12/14 00:24:44;;;;;;;23.00;8.13;;;;;;;-1.96;70.96;100280.97;5050708;28;20033;-71
2022/12/14 00:27:10;;;;;;;24.08;8.80;;;;;;;-1.94;70.13;100283.53;5052408;28;20029;-71
2022/12/14 00:29:35;;;;;;;26.80;8.40;;;;;;;-1.94;70.41;100286.19;5032635;28;20037;-71
2022/12/14 00:32:00;;;;;;;23.90;7.13;;;;;;;-1.90;70.52;100289.56;5052697;28;20025;-71
2022/12/14 00:34:26;;;;;;;22.23;7.75;;;;;;;-1.89;70.29;100286.88;5035095;28;20107;-70
2022/12/14 00:36:51;;;;;;;22.75;8.88;;;;;;;-1.89;69.96;100280.75;5034117;28;20017;-71
2022/12/14 00:39:16;;;;;;;23.17;7.93;;;;;;;-1.91;69.80;100278.19;5052617;28;20033;-71
2022/12/14 00:41:42;;;;;;;22.55;9.10;;;;;;;-1.92;70.28;100268.53;5051029;28;20032;-71
2022/12/14 00:44:07;;;;;;;22.63;7.55;;;;;;;-1.92;69.59;100271.19;5052524;28;20020;-71
2022/12/14 00:46:32;;;;;;;23.25;8.07;;;;;;;-1.95;70.05;100256.34;5035517;28;20025;-71
2022/12/14 00:48:58;;;;;;;22.10;7.07;;;;;;;-1.96;70.13;100256.41;5052601;28;20025;-71
2022/12/14 00:51:23;;;;;;;21.83;8.30;;;;;;;-1.97;69.92;100246.78;5050670;28;20142;-71
2022/12/14 00:53:48;;;;;;;21.40;7.72;;;;;;;-2.00;69.92;100254.78;5033389;28;20434;-71
2022/12/14 00:56:14;;;;;;;23.13;8.65;;;;;;;-2.04;70.06;100243.47;5033523;28;20040;-70
2022/12/14 00:58:39;;;;;;;23.83;8.50;;;;;;;-2.10;69.68;100233.13;5052505;28;20021;-71
2022/12/14 01:01:07;;;;;;;21.05;7.22;;;;;;;-2.11;69.98;100239.28;5043676;28;20029;-71
2022/12/14 01:03:33;;;;;;;21.38;7.97;;;;;;;-2.15;69.66;100250.84;5047148;28;20029;-70
2022/12/14 01:05:59;;;;;;;21.10;6.93;;;;;;;-2.18;69.83;100243.91;5050725;28;20381;-71
2022/12/14 01:08:24;;;;;;;20.92;7.05;;;;;;;-2.17;69.97;100236.84;5044749;28;20035;-71
2022/12/14 01:10:50;;;;;;;20.50;7.15;;;;;;;-2.19;69.61;100236.91;5033081;28;20103;-71
2022/12/14 01:13:16;;;;;;;21.70;7.93;;;;;;;-2.19;69.88;100231.63;5052263;28;20113;-71
2022/12/14 01:15:41;;;;;;;23.08;7.82;;;;;;;-2.17;69.89;100228.94;5033933;28;20456;-71
2022/12/14 01:18:06;;;;;;;24.08;8.63;;;;;;;-2.17;69.86;100228.94;5052561;28;20056;-71
2022/12/14 01:20:32;;;;;;;22.38;7.90;;;;;;;-2.14;69.94;100229.75;5048846;28;20060;-71
2022/12/14 01:22:57;;;;;;;23.33;7.90;;;;;;;-2.12;70.33;100227.91;5051054;28;20013;-71
2022/12/14 01:25:23;;;;;;;21.65;8.15;;;;;;;-2.11;70.11;100228.75;5050687;28;20020;-70
2022/12/14 01:27:48;;;;;;;20.98;7.82;;;;;;;-2.08;70.07;100228.66;5052059;28;20037;-71
2022/12/14 01:30:13;;;;;;;20.67;7.22;;;;;;;-2.07;69.87;100229.53;5033388;28;20049;-70
2022/12/14 01:32:38;;;;;;;26.38;7.90;;;;;;;-2.06;70.10;100226.00;5052029;28;20032;-71
2022/12/14 01:35:04;;;;;;;23.23;6.93;;;;;;;-2.05;70.12;100222.44;5051691;28;20550;-71
2022/12/14 01:37:29;;;;;;;22.98;7.43;;;;;;;-2.05;70.09;100218.06;5042924;28;20022;-71
2022/12/14 01:39:54;;;;;;;22.77;8.20;;;;;;;-2.06;69.60;100221.59;5023603;28;20206;-71
2022/12/14 01:42:20;;;;;;;21.48;7.32;;;;;;;-2.04;69.82;100224.19;5052888;28;20558;-71
2022/12/14 01:44:50;;;;;;;22.80;7.53;;;;;;;-2.02;69.50;100219.72;5052573;28;20108;-70
2022/12/14 01:47:25;;;;;;;22.45;7.28;;;;;;;-2.04;70.04;100225.03;5031955;28;20032;-71
2022/12/14 01:49:53;;;;;;;21.85;7.10;;;;;;;-2.08;69.67;100228.66;5033767;28;20028;-70
2022/12/14 01:52:33;;;;;;;21.10;6.88;;;;;;;-2.05;69.85;100222.44;5052480;28;20021;-71
2022/12/14 01:55:06;;;;;;;23.73;7.70;;;;;;;-2.05;69.16;100223.31;5053027;28;20028;-71
2022/12/14 01:57:35;;;;;;;23.00;7.82;;;;;;;-2.07;69.52;100219.00;5052446;28;20484;-70
2022/12/14 02:00:03;;;;;;;24.00;7.70;;;;;;;-2.07;69.69;100221.63;5051536;28;20036;-71
2022/12/14 02:02:28;;;;;;;22.45;7.22;;;;;;;-2.07;69.08;100213.75;5052192;28;20563;-70
2022/12/14 02:04:58;;;;;;;22.60;7.13;;;;;;;-2.05;69.60;100206.66;5034492;28;20028;-70
2022/12/14 02:07:26;;;;;;;25.17;8.15;;;;;;;-2.05;69.58;100207.53;5031501;28;20029;-71
2022/12/14 02:09:55;;;;;;;22.80;8.68;;;;;;;-2.05;69.20;100206.66;5052933;28;20025;-71
2022/12/14 02:12:28;;;;;;;19.85;6.57;;;;;;;-2.05;69.45;100201.38;5054962;28;20411;-71
2022/12/14 02:14:54;;;;;;;22.42;7.55;;;;;;;-2.05;69.33;100201.38;5051821;28;20057;-70
2022/12/14 02:17:20;;;;;;;21.83;7.68;;;;;;;-2.05;69.41;100191.72;5054396;28;20106;-71
2022/12/14 02:19:48;;;;;;;19.45;7.00;;;;;;;-2.03;69.51;100189.91;5053058;28;20053;-71
2022/12/14 02:22:51;;;;;;;22.70;7.95;;;;;;;-2.01;69.21;100190.69;5025740;28;20037;-71
2022/12/14 02:25:41;;;;;;;23.13;7.72;;;;;;;-2.02;69.51;100196.00;5036376;28;20026;-71
2022/12/14 02:28:33;;;;;;;22.48;7.15;;;;;;;-2.02;69.99;100193.38;5051336;28;20071;-71
2022/12/14 02:31:19;;;;;;;22.13;6.72;;;;;;;-2.02;69.87;100188.13;5055372;28;20045;-70
2022/12/14 02:33:56;;;;;;;22.48;8.30;;;;;;;-2.04;70.01;100187.31;5054118;28;20023;-71
2022/12/14 02:36:40;;;;;;;21.15;6.55;;;;;;;-2.03;69.61;100179.38;5052239;28;20039;-71
2022/12/14 02:39:37;;;;;;;20.73;7.43;;;;;;;-2.02;69.80;100185.47;5046862;28;20042;-71
2022/12/14 02:42:14;;;;;;;21.17;7.88;;;;;;;-2.04;69.73;100182.03;5051764;28;20365;-70
2022/12/14 02:45:01;;;;;;;23.63;9.48;;;;;;;-2.05;69.58;100181.19;5050681;28;20029;-71
2022/12/14 02:47:38;;;;;;;21.75;7.63;;;;;;;-2.09;68.95;100179.56;5051756;28;20037;-70
2022/12/14 02:50:22;;;;;;;20.35;7.13;;;;;;;-2.08;69.46;100165.47;5054784;28;20021;-70
2022/12/14 02:52:59;;;;;;;21.15;8.07;;;;;;;-2.07;69.90;100176.88;5053604;28;20025;-71
2022/12/14 02:55:32;;;;;;;18.75;6.72;;;;;;;-2.07;69.77;100172.47;5055044;28;20424;-71
2022/12/14 02:58:21;;;;;;;22.98;7.38;;;;;;;-2.04;70.08;100182.03;5053148;28;20436;-70
2022/12/14 03:00:47;;;;;;;19.83;6.95;;;;;;;-2.03;69.30;100173.25;5037898;28;20045;-71
2022/12/14 03:03:13;;;;;;;23.38;7.50;;;;;;;-2.03;69.39;100178.50;5055430;28;20017;-71
2022/12/14 03:05:38;;;;;;;19.90;6.40;;;;;;;-2.02;69.34;100181.09;5055184;28;20098;-71
2022/12/14 03:08:11;;;;;;;20.83;7.35;;;;;;;-2.00;69.20;100175.78;5034913;28;20021;-71
2022/12/14 03:11:01;;;;;;;21.45;7.40;;;;;;;-1.98;69.50;100177.47;5054454;28;20035;-71
2022/12/14 03:13:36;;;;;;;19.80;7.25;;;;;;;-1.95;69.44;100173.84;5049906;28;20422;-71
2022/12/14 03:16:08;;;;;;;20.85;6.93;;;;;;;-1.95;68.88;100181.75;5052147;28;20032;-71
2022/12/14 03:18:38;;;;;;;20.20;6.78;;;;;;;-1.96;69.45;100172.13;5051973;28;20029;-71
2022/12/14 03:21:09;;;;;;;19.90;6.88;;;;;;;-1.98;68.52;100169.56;5054717;28;20439;-71
2022/12/14 03:23:38;;;;;;;19.38;7.43;;;;;;;-1.97;69.90;100158.09;5054635;28;20476;-70
2022/12/14 03:26:18;;;;;;;24.20;8.20;;;;;;;-1.92;70.91;100154.44;5053683;28;20086;-71
2022/12/14 03:28:55;;;;;;;23.90;7.43;;;;;;;-1.92;70.79;100144.78;5052194;28;20056;-71
2022/12/14 03:31:28;;;;;;;23.80;8.10;;;;;;;-1.92;70.28;100142.13;5053303;28;20041;-71
2022/12/14 03:33:57;;;;;;;22.52;7.10;;;;;;;-1.96;69.84;100133.50;5035789;28;20508;-70
2022/12/14 03:36:52;;;;;;;23.60;8.40;;;;;;;-1.95;71.14;100132.59;5052058;28;20431;-70
2022/12/14 03:39:26;;;;;;;21.15;6.65;;;;;;;-1.95;70.46;100129.06;5046600;28;20124;-71
2022/12/14 03:42:10;;;;;;;21.23;7.75;;;;;;;-1.91;71.58;100125.44;5053773;28;20029;-71
2022/12/14 03:44:45;;;;;;;20.83;7.53;;;;;;;-1.96;69.64;100137.91;5054691;28;20036;-71
2022/12/14 03:47:20;;;;;;;21.70;8.00;;;;;;;-1.95;70.28;100123.81;5036567;28;20021;-71
2022/12/14 03:50:00;;;;;;;23.20;8.13;;;;;;;-1.93;71.16;100132.53;5054669;28;20024;-71
2022/12/14 03:52:37;;;;;;;22.17;8.32;;;;;;;-1.93;71.25;100132.53;5055162;28;20448;-71
2022/12/14 03:55:28;;;;;;;19.80;6.13;;;;;;;-1.96;70.94;100130.84;5055002;28;20056;-71
2022/12/14 03:58:16;;;;;;;20.63;7.60;;;;;;;-1.93;69.99;100122.00;5053063;28;20075;-71
2022/12/14 04:01:00;;;;;;;20.85;8.38;;;;;;;-1.94;70.46;100121.13;5031715;28;20112;-71
2022/12/14 04:03:48;;;;;;;20.50;7.30;;;;;;;-1.92;70.81;100117.59;5034583;28;20034;-71
2022/12/14 04:06:29;;;;;;;21.52;7.90;;;;;;;-1.96;70.09;100111.56;5036019;28;20033;-71
2022/12/14 04:09:00;;;;;;;22.60;7.03;;;;;;;-1.95;70.74;100097.47;5051211;28;20086;-71
2022/12/14 04:20:00;;;;;;;21.88;8.43;;;;;;;-1.95;70.83;100084.31;5051913;28;20035;-71
2022/12/14 04:22:31;;;;;;;18.77;6.90;;;;;;;-1.97;69.38;100084.34;5053403;28;20133;-71
2022/12/14 04:28:08;;;;;;;20.98;6.95;;;;;;;-1.95;71.13;100079.91;5053503;28;20052;-71
2022/12/14 04:30:38;;;;;;;22.50;7.65;;;;;;;-1.97;70.20;100083.50;5050425;28;20075;-71
2022/12/14 04:36:00;;;;;;;20.30;7.00;;;;;;;-2.00;70.16;100079.19;5050572;28;20055;-71
2022/12/14 04:38:33;;;;;;;23.98;7.43;;;;;;;-1.97;69.91;100073.81;5050443;28;20357;-71
2022/12/14 04:41:05;;;;;;;23.05;7.88;;;;;;;-1.97;70.74;100072.97;5052671;28;20100;-71
2022/12/14 04:43:36;;;;;;;20.77;6.78;;;;;;;-1.98;70.13;100068.63;5033036;28;20029;-71
2022/12/14 04:46:09;;;;;;;21.30;7.38;;;;;;;-1.98;70.65;100065.97;5050466;28;20051;-71
2022/12/14 04:48:43;;;;;;;21.83;8.15;;;;;;;-1.98;71.31;100066.84;5049135;28;20045;-70
2022/12/14 04:51:30;;;;;;;24.60;8.60;;;;;;;-1.97;72.09;100059.81;5053707;28;20564;-71
2022/12/14 04:54:05;;;;;;;21.35;7.80;;;;;;;-2.04;71.70;100064.41;5031425;28;20070;-71
2022/12/14 04:56:41;;;;;;;21.80;8.20;;;;;;;-2.02;72.18;100061.72;5051129;28;20031;-70
2022/12/14 04:59:06;;;;;;;25.13;9.32;;;;;;;-2.06;71.74;100047.81;5035365;28;20016;-71
2022/12/14 05:01:52;;;;;;;23.20;8.70;;;;;;;-2.01;72.52;100059.03;5051879;28;20497;-70
2022/12/14 05:04:32;;;;;;;28.40;10.07;;;;;;;-2.02;72.36;100059.09;5050564;28;20045;-70
2022/12/14 05:07:25;;;;;;;22.98;8.23;;;;;;;-2.04;73.03;100055.66;5048467;28;20036;-71
2022/12/14 05:09:59;;;;;;;22.40;8.07;;;;;;;-2.05;73.27;100054.81;5052040;28;20079;-71
2022/12/14 05:12:38;;;;;;;21.30;8.90;;;;;;;-2.06;73.43;100057.50;5033444;28;20029;-71
2022/12/14 05:15:13;;;;;;;23.20;7.57;;;;;;;-2.05;74.14;100056.56;5049365;28;20056;-70
2022/12/14 05:17:40;;;;;;;25.55;9.35;;;;;;;-2.05;73.53;100046.03;5050997;28;20060;-71
2022/12/14 05:20:13;;;;;;;23.70;9.63;;;;;;;-2.05;73.65;100048.66;5051053;28;20111;-71
2022/12/14 05:22:39;;;;;;;22.83;7.95;;;;;;;-2.05;72.82;100041.66;5051928;28;20029;-71
2022/12/14 05:25:05;;;;;;;23.38;7.85;;;;;;;-2.04;72.73;100037.22;5035527;28;20029;-71
2022/12/14 05:27:30;;;;;;;20.38;7.05;;;;;;;-2.04;73.20;100045.13;5047387;28;20091;-71
2022/12/14 05:29:55;;;;;;;20.35;6.75;;;;;;;-2.04;72.63;100042.50;5051426;28;20055;-71
2022/12/14 05:32:21;;;;;;;25.02;8.50;;;;;;;-2.08;73.69;100040.88;5050595;28;20036;-71
2022/12/14 05:34:46;;;;;;;20.70;7.10;;;;;;;-2.13;74.01;100031.34;5051533;28;20028;-71
2022/12/14 05:37:11;;;;;;;24.58;9.10;;;;;;;-2.14;73.79;100029.66;5035254;28;20646;-70
2022/12/14 05:39:37;;;;;;;20.10;7.47;;;;;;;-2.18;74.50;100027.16;5050490;28;20072;-70
2022/12/14 05:42:02;;;;;;;23.90;7.95;;;;;;;-2.18;74.07;100029.78;5052749;28;20014;-71
2022/12/14 05:44:27;;;;;;;21.00;8.40;;;;;;;-2.18;73.54;100032.41;5052163;28;20029;-70
2022/12/14 05:46:53;;;;;;;21.50;9.07;;;;;;;-2.16;73.22;100039.38;5053093;28;20050;-71
2022/12/14 05:49:18;;;;;;;27.15;7.95;;;;;;;-2.17;73.41;100037.63;5034970;28;20024;-71
2022/12/14 05:51:43;;;;;;;25.67;9.05;;;;;;;-2.15;73.12;100038.47;5034321;28;20500;-70
2022/12/14 05:54:09;;;;;;;23.65;8.57;;;;;;;-2.14;73.45;100039.31;5051774;28;20151;-70
2022/12/14 05:56:34;;;;;;;23.25;8.30;;;;;;;-2.14;73.55;100041.94;5034210;28;20552;-71
2022/12/14 05:58:59;;;;;;;25.77;8.38;;;;;;;-2.13;73.58;100036.63;5052390;28;20039;-71
2022/12/14 06:01:24;;;;;;;22.33;7.68;;;;;;;-2.12;73.81;100038.34;5050583;28;20108;-71
2022/12/14 06:03:51;;;;;;;23.50;9.27;;;;;;;-2.11;73.85;100033.94;5035272;28;20055;-71
2022/12/14 06:06:16;;;;;;;24.27;8.75;;;;;;;-2.10;73.49;100025.13;5034570;28;20028;-71
2022/12/14 06:08:44;;;;;;;24.45;9.15;;;;;;;-2.09;74.46;100031.25;5048070;28;20515;-71
2022/12/14 06:11:14;;;;;;;25.42;9.45;;;;;;;-2.09;74.92;100025.97;5033914;28;20552;-71
2022/12/14 06:13:41;;;;;;;22.08;7.90;;;;;;;-2.09;75.07;100020.72;5050898;28;20029;-71
2022/12/14 06:16:16;;;;;;;24.38;7.95;;;;;;;-2.14;74.90;100016.50;5052644;28;20472;-71
2022/12/14 06:18:47;;;;;;;24.33;7.95;;;;;;;-2.16;75.39;100014.81;5051780;28;20053;-71
2022/12/14 06:21:14;;;;;;;24.27;9.13;;;;;;;-2.19;75.45;100013.16;5049563;28;20439;-71
2022/12/14 06:23:39;;;;;;;22.85;8.82;;;;;;;-2.22;75.55;100021.16;5028152;28;20057;-71
2022/12/14 06:26:05;;;;;;;25.20;9.07;;;;;;;-2.22;74.85;100026.41;5044127;28;20061;-71
2022/12/14 06:28:31;;;;;;;24.52;9.07;;;;;;;-2.22;75.23;100025.56;5052014;28;20048;-71
2022/12/14 06:30:56;;;;;;;25.60;10.25;;;;;;;-2.23;75.20;100024.69;5050355;28;20547;-71
2022/12/14 06:33:22;;;;;;;21.77;8.30;;;;;;;-2.24;75.09;100023.00;5051377;28;20078;-71
2022/12/14 06:35:47;;;;;;;23.45;8.48;;;;;;;-2.24;75.54;100020.34;5052383;28;20026;-71
2022/12/14 06:38:13;;;;;;;27.05;10.68;;;;;;;-2.24;75.47;100022.09;5053012;28;20029;-70
2022/12/14 06:40:39;;;;;;;24.55;9.23;;;;;;;-2.25;76.00;100023.03;5050690;28;20115;-71
2022/12/14 06:43:04;;;;;;;25.52;9.88;;;;;;;-2.26;76.17;100022.16;5050618;28;20039;-71
2022/12/14 06:45:30;;;;;;;23.80;8.93;;;;;;;-2.26;76.08;100027.44;5052133;28;20036;-70
2022/12/14 06:47:55;;;;;;;25.50;10.65;;;;;;;-2.24;75.74;100036.16;5051513;28;20467;-71
2022/12/14 06:50:21;;;;;;;20.65;7.45;;;;;;;-2.22;74.99;100033.47;5033643;28;20025;-71
2022/12/14 06:52:50;;;;;;;21.60;8.25;;;;;;;-2.22;74.97;100038.72;5052365;28;20029;-70
2022/12/14 06:55:16;;;;;;;24.77;9.52;;;;;;;-2.22;74.80;100033.47;5036207;28;20056;-70
2022/12/14 06:57:41;;;;;;;23.13;7.85;;;;;;;-2.22;75.21;100034.31;5053317;28;20437;-71
2022/12/14 07:00:11;;;;;;;22.73;8.52;;;;;;;-2.22;75.46;100029.03;5055695;28;20025;-70
2022/12/14 07:02:37;;;;;;;24.92;7.80;;;;;;;-2.19;75.09;100031.56;5047882;28;20484;-70
2022/12/14 07:05:03;;;;;;;23.15;8.13;;;;;;;-2.19;74.71;100036.84;5043815;28;20029;-71
2022/12/14 07:07:31;;;;;;;22.15;10.38;;;;;;;-2.19;76.18;100034.19;5054963;28;20025;-72
2022/12/14 07:09:57;;;;;;;23.23;10.15;;;;;;;-2.19;74.56;100039.47;5044836;28;20029;-70
2022/12/14 07:12:22;;;;;;;24.67;9.18;;;;;;;-2.20;74.70;100035.09;5054419;28;20043;-71
2022/12/14 07:14:47;;;;;;;26.13;9.30;;;;;;;-2.21;75.62;100035.16;5055548;28;20384;-70
2022/12/14 07:17:13;;;;;;;26.17;10.43;;;;;;;-2.20;75.63;100037.75;5055848;28;20154;-71
2022/12/14 07:19:38;;;;;;;24.65;9.48;;;;;;;-2.19;74.96;100039.47;5054259;28;20025;-71
2022/12/14 07:22:03;;;;;;;24.90;9.15;;;;;;;-2.20;75.17;100039.53;5054839;28;20036;-71
2022/12/14 07:24:29;;;;;;;23.67;8.73;;;;;;;-2.21;75.08;100046.56;5055152;28;20013;-70
2022/12/14 07:26:55;;;;;;;22.50;9.15;;;;;;;-2.24;75.65;100038.78;5055340;28;20045;-71
2022/12/14 07:29:20;;;;;;;24.50;9.57;;;;;;;-2.28;75.85;100034.53;5054257;28;20513;-70
2022/12/14 07:31:46;;;;;;;23.63;9.88;;;;;;;-2.32;76.09;100038.16;5054335;28;20027;-70
2022/12/14 07:34:12;;;;;;;23.35;9.40;;;;;;;-2.34;75.86;100043.47;5055757;28;20477;-71
2022/12/14 07:36:37;;;;;;;24.02;9.88;;;;;;;-2.38;76.15;100048.91;5054724;28;20033;-70
2022/12/14 07:39:02;;;;;;;22.67;8.98;;;;;;;-2.42;75.87;100052.53;5056880;28;20037;-70
2022/12/14 07:41:29;;;;;;;24.45;8.77;;;;;;;-2.47;76.11;100055.31;5057050;28;20116;-71
2022/12/14 07:43:56;;;;;;;22.65;9.63;;;;;;;-2.52;76.81;100051.97;5056015;28;20025;-71
2022/12/14 07:46:26;;;;;;;24.38;9.90;;;;;;;-2.57;76.71;100046.00;5052342;28;20028;-71
2022/12/14 07:48:54;;;;;;;20.85;8.40;;;;;;;-2.63;76.39;100049.69;5054420;28;20021;-70
2022/12/14 07:51:21;;;;;;;22.95;8.85;;;;;;;-2.65;76.45;100060.25;5055665;28;20025;-71
2022/12/14 07:53:48;;;;;;;26.75;8.70;;;;;;;-2.66;76.78;100055.06;5054746;28;20049;-70
2022/12/14 07:56:16;;;;;;;21.83;8.40;;;;;;;-2.70;77.05;100054.28;5049535;28;20021;-71
2022/12/14 07:58:42;;;;;;;24.85;10.38;;;;;;;-2.71;76.81;100051.69;5054265;28;20082;-71
2022/12/14 08:01:12;;;;;;;24.02;10.38;;;;;;;-2.75;76.81;100056.19;5035077;28;20576;-71
2022/12/14 08:03:44;;;;;;;25.13;11.30;;;;;;;-2.71;77.58;100059.56;5048734;28;20104;-71
2022/12/14 08:06:11;;;;;;;24.63;9.60;;;;;;;-2.74;77.01;100065.78;5048138;28;20086;-71
2022/12/14 08:08:37;;;;;;;27.05;11.20;;;;;;;-2.73;77.08;100064.88;5051249;28;20025;-70
2022/12/14 08:11:04;;;;;;;27.13;9.40;;;;;;;-2.73;76.00;100064.03;5054038;28;20025;-71
2022/12/14 08:13:30;;;;;;;23.75;9.57;;;;;;;-2.75;75.83;100060.56;5055237;28;20028;-71
2022/12/14 08:15:55;;;;;;;24.23;9.30;;;;;;;-2.76;76.31;100061.50;5054007;28;20108;-71
2022/12/14 08:18:21;;;;;;;27.88;9.48;;;;;;;-2.78;76.44;100065.94;5052233;28;20029;-70
2022/12/14 08:20:50;;;;;;;25.13;9.70;;;;;;;-2.81;76.91;100065.13;5049681;28;20020;-70
2022/12/14 08:23:16;;;;;;;22.70;9.15;;;;;;;-2.84;76.84;100070.50;5050899;28;20503;-69
2022/12/14 08:25:41;;;;;;;25.02;9.52;;;;;;;-2.85;76.40;100068.75;5032844;28;20067;-71
2022/12/14 08:28:07;;;;;;;24.70;9.32;;;;;;;-2.85;76.68;100079.28;5055227;28;20032;-70
2022/12/14 08:30:32;;;;;;;22.50;8.93;;;;;;;-2.87;76.65;100082.84;5055093;28;20637;-70
2022/12/14 08:32:57;;;;;;;24.35;9.15;;;;;;;-2.91;76.66;100079.47;5049967;28;20400;-70
2022/12/14 08:35:22;;;;;;;24.58;9.73;;;;;;;-2.89;76.80;100079.44;5051671;28;20025;-70
2022/12/14 08:37:51;;;;;;;24.20;9.45;;;;;;;-2.91;76.77;100079.47;5055713;28;20036;-70
2022/12/14 08:40:16;;;;;;;26.58;9.40;;;;;;;-2.89;76.80;100082.06;5055328;28;20020;-71
2022/12/14 08:42:42;;;;;;;26.27;9.30;;;;;;;-2.91;76.56;100078.63;5048367;28;20017;-71
2022/12/14 08:45:07;;;;;;;27.13;10.30;;;;;;;-2.93;76.50;100085.69;5050755;28;20465;-71
2022/12/14 08:47:33;;;;;;;26.40;9.32;;;;;;;-2.97;76.45;100078.78;5050899;28;20039;-70
2022/12/14 08:49:58;;;;;;;23.33;8.80;;;;;;;-3.00;76.60;100085.00;5050255;28;20075;-71
2022/12/14 08:52:23;;;;;;;24.88;9.75;;;;;;;-3.02;76.66;100086.81;5050849;28;20029;-71
2022/12/14 08:54:49;;;;;;;23.02;8.75;;;;;;;-3.07;77.12;100080.84;5051222;28;20119;-70
2022/12/14 08:57:14;;;;;;;26.75;9.00;;;;;;;-3.08;77.03;100082.59;5047014;28;20436;-71
2022/12/14 08:59:39;;;;;;;23.52;8.75;;;;;;;-3.13;77.37;100079.25;5049096;28;20035;-70
2022/12/14 09:02:05;;;;;;;26.00;9.63;;;;;;;-3.16;77.69;100079.34;5047761;28;20028;-71
2022/12/14 09:04:30;;;;;;;22.30;8.45;;;;;;;-3.19;77.39;100074.19;5049928;28;20402;-70
2022/12/14 09:06:56;;;;;;;25.95;8.68;;;;;;;-3.19;78.27;100076.81;5048259;28;20128;-71
2022/12/14 09:09:21;;;;;;;23.27;8.68;;;;;;;-3.16;78.11;100085.44;5051949;28;20443;-71
2022/12/14 09:11:46;;;;;;;24.70;9.93;;;;;;;-3.16;77.89;100084.59;5033798;28;20037;-72
2022/12/14 09:14:12;;;;;;;24.65;8.38;;;;;;;-3.13;77.99;100088.88;5049971;28;20067;-72
2022/12/14 09:16:38;;;;;;;27.63;10.63;;;;;;;-3.10;78.02;100094.94;5031590;28;20029;-72
2022/12/14 09:19:03;;;;;;;27.88;11.15;;;;;;;-3.05;77.80;100097.41;5049168;28;20507;-73
2022/12/14 09:21:30;;;;;;;26.25;9.52;;;;;;;-3.00;77.92;100096.38;5050195;28;20079;-73
2022/12/14 09:23:55;;;;;;;26.70;10.57;;;;;;;-2.94;77.29;100100.59;5049838;28;20028;-72
2022/12/14 09:26:22;;;;;;;23.83;9.30;;;;;;;-2.88;76.97;100104.81;5048999;28;20477;-73
2022/12/14 09:28:53;;;;;;;25.65;9.63;;;;;;;-2.88;76.39;100099.56;5049535;28;20501;-73
2022/12/14 09:31:22;;;;;;;24.25;9.70;;;;;;;-2.87;76.98;100102.16;5049514;28;20724;-72
2022/12/14 09:33:48;;;;;;;25.40;9.20;;;;;;;-2.85;76.92;100105.56;5049516;28;20017;-71
2022/12/14 09:36:19;;;;;;;25.45;10.65;;;;;;;-2.78;77.13;100108.00;5047439;28;20025;-71
2022/12/14 09:38:44;;;;;;;25.83;10.10;;;;;;;-2.78;76.58;100103.63;5049496;28;20068;-71
2022/12/14 09:41:28;;;;;;;23.55;9.18;;;;;;;-2.74;76.98;100107.88;5045988;28;20053;-73
2022/12/14 09:44:24;;;;;;;24.63;10.18;;;;;;;-2.64;75.97;100103.19;5049056;28;20057;-76
2022/12/14 09:47:01;;;;;;;23.95;8.95;;;;;;;-2.59;75.48;100096.03;5048991;28;20025;-74
2022/12/14 09:49:29;;;;;;;24.60;9.63;;;;;;;-2.54;75.33;100093.25;5045428;28;20055;-73
2022/12/14 09:52:00;;;;;;;27.05;8.98;;;;;;;-2.51;74.67;100094.00;5049733;28;20029;-72
2022/12/14 09:54:32;;;;;;;23.48;8.25;;;;;;;-2.48;74.14;100098.31;5046489;28;20492;-75
2022/12/14 09:57:03;;;;;;;21.58;8.18;;;;;;;-2.48;74.65;100099.16;5047457;28;20440;-72
2022/12/14 09:59:32;;;;;;;21.35;7.43;;;;;;;-2.46;73.84;100097.38;5046252;28;20056;-70
2022/12/14 10:02:23;;;;;;;25.63;8.82;;;;;;;-2.42;74.31;100108.66;5049851;28;20104;-73
2022/12/14 10:05:12;;;;;;;25.23;9.90;;;;;;;-2.36;74.29;100108.44;5048231;28;20380;-74
2022/12/14 10:07:52;;;;;;;27.02;9.05;;;;;;;-2.32;74.38;100106.59;5038262;28;20063;-73
2022/12/14 10:10:32;;;;;;;24.67;10.13;;;;;;;-2.27;74.07;100104.66;5036396;28;20682;-75
2022/12/14 10:13:25;;;;;;;21.73;8.23;;;;;;;-2.25;73.39;100094.09;5050896;28;20416;-76
2022/12/14 10:16:09;;;;;;;26.27;10.23;;;;;;;-2.19;73.93;100088.63;5048473;28;20029;-77
2022/12/14 10:18:57;;;;;;;22.10;8.45;;;;;;;-2.17;73.39;100082.38;5039197;28;20490;-71
2022/12/14 10:21:27;;;;;;;22.60;7.82;;;;;;;-2.17;72.84;100081.53;5036956;28;20036;-72
2022/12/14 10:24:00;;;;;;;21.67;8.00;;;;;;;-2.14;73.73;100082.31;5038167;28;20508;-72
2022/12/14 10:26:31;;;;;;;24.17;8.95;;;;;;;-2.12;73.62;100088.38;5038839;28;20295;-71
2022/12/14 10:29:05;;;;;;;26.25;9.25;;;;;;;-2.04;73.19;100090.75;5041277;28;20033;-72
2022/12/14 10:31:54;;;;;;;21.98;8.73;;;;;;;-1.97;73.60;100094.03;5043726;28;20053;-71
2022/12/14 10:34:23;;;;;;;25.33;8.40;;;;;;;-1.96;72.13;100091.34;5044756;28;20032;-71
2022/12/14 10:37:11;;;;;;;23.73;9.20;;;;;;;-1.92;73.18;100092.09;5044783;28;20290;-72
2022/12/14 10:39:47;;;;;;;23.33;9.43;;;;;;;-1.89;72.61;100097.25;5043816;28;20268;-71
2022/12/14 10:42:33;;;;;;;22.85;8.57;;;;;;;-1.89;72.13;100096.41;5047159;28;20033;-71
2022/12/14 10:45:27;;;;;;;24.77;8.05;;;;;;;-1.83;73.46;100097.06;5045965;28;20029;-72
2022/12/14 10:48:11;;;;;;;24.27;8.82;;;;;;;-1.83;72.77;100099.69;5048507;28;20033;-71
2022/12/14 10:50:48;;;;;;;24.23;9.02;;;;;;;-1.84;72.58;100097.97;5050999;28;20020;-70
2022/12/14 10:53:21;;;;;;;23.20;7.72;;;;;;;-1.82;72.84;100098.78;5053051;28;20021;-72
2022/12/14 10:55:47;;;;;;;25.65;8.88;;;;;;;-1.78;73.31;100097.75;5046704;28;20037;-70
2022/12/14 10:58:12;;;;;;;22.48;7.47;;;;;;;-1.75;72.22;100094.16;5044226;28;20116;-70
2022/12/14 11:00:37;;;;;;;25.33;8.30;;;;;;;-1.74;72.44;100103.78;5041970;28;20093;-71
2022/12/14 11:03:11;;;;;;;25.77;10.27;;;;;;;-1.71;72.40;100100.16;5044016;28;20036;-71
2022/12/14 11:05:39;;;;;;;21.83;7.18;;;;;;;-1.68;72.30;100093.03;5042833;28;20079;-71
2022/12/14 11:08:06;;;;;;;20.17;7.50;;;;;;;-1.63;72.70;100099.00;5042612;28;20541;-72
2022/12/14 11:10:34;;;;;;;22.60;7.10;;;;;;;-1.56;71.81;100098.81;5041783;28;20035;-73
2022/12/14 11:13:06;;;;;;;28.42;9.30;;;;;;;-1.55;70.75;100106.66;5041249;28;20073;-73
2022/12/14 11:15:33;;;;;;;20.77;7.20;;;;;;;-1.54;71.01;100102.22;5041868;28;20041;-73
2022/12/14 11:18:03;;;;;;;23.17;8.95;;;;;;;-1.52;71.24;100108.28;5042351;28;20028;-73
2022/12/14 11:20:30;;;;;;;24.58;8.60;;;;;;;-1.47;71.49;100093.19;5041134;28;20040;-73
2022/12/14 11:23:04;;;;;;;23.10;9.40;;;;;;;-1.43;71.08;100090.38;5040291;28;20025;-72
2022/12/14 11:25:36;;;;;;;22.40;8.40;;;;;;;-1.38;71.06;100097.28;5041581;28;20044;-72
2022/12/14 11:28:14;;;;;;;23.92;10.02;;;;;;;-1.35;70.86;100103.28;5041920;28;20074;-74
2022/12/14 11:30:39;;;;;;;19.45;7.80;;;;;;;-1.30;70.88;100095.22;5039835;28;20056;-72
2022/12/14 11:33:05;;;;;;;26.02;9.05;;;;;;;-1.25;71.64;100103.81;5041878;28;20660;-72
2022/12/14 11:35:30;;;;;;;29.95;10.35;;;;;;;-1.23;70.59;100104.59;5041539;28;20033;-72
2022/12/14 11:37:59;;;;;;;23.58;8.77;;;;;;;-1.21;70.59;100097.53;5044838;28;20091;-72
2022/12/14 11:40:26;;;;;;;22.63;7.65;;;;;;;-1.19;70.48;100095.69;5044125;28;20492;-72
2022/12/14 11:43:00;;;;;;;26.63;8.88;;;;;;;-1.17;70.68;100104.41;5041849;28;20036;-72
2022/12/14 11:45:25;;;;;;;22.55;9.43;;;;;;;-1.16;71.07;100089.44;5042185;28;20037;-71